Time;durP1;ratioP1;P1;durP2;ratioP2;P2;SDS_P1;SDS_P2;PMS_P1;PMS_P2;Temp;Humidity;BMP_temperature;BMP_pressure;BME280_temperature;BME280_humidity;BME280_pressure;Samples;Min_cycle;Max_cycle;Signal;HPM_P1;HPM_P2
2021/07/14 09:52:47;;;;;;;8.43;6.60;;;;;;;34.30;36.89;99140.42;1834977;77;22093;-61
2021/07/14 09:55:29;;;;;;;7.70;6.08;;;;;;;33.89;37.59;99146.52;1889770;76;22259;-62
2021/07/14 09:58:15;;;;;;;9.93;6.60;;;;;;;33.42;38.33;99148.57;1889883;76;22042;-62
2021/07/14 10:01:16;;;;;;;10.30;6.50;;;;;;;33.23;38.89;99146.05;1854619;76;28326;-64
2021/07/14 10:03:53;;;;;;;9.35;6.20;;;;;;;33.17;38.61;99146.52;1870410;76;22054;-62
2021/07/14 10:06:28;;;;;;;6.78;5.90;;;;;;;33.04;39.06;99146.64;1889900;76;22135;-62
2021/07/14 10:09:05;;;;;;;11.40;6.47;;;;;;;33.00;39.69;99135.81;1889952;76;22070;-62
2021/07/14 10:11:41;;;;;;;8.13;6.22;;;;;;;33.19;39.46;99139.23;1870449;76;22233;-62
2021/07/14 10:14:16;;;;;;;8.95;5.67;;;;;;;33.34;39.00;99131.80;1870619;76;22249;-66
2021/07/14 10:16:51;;;;;;;12.47;6.60;;;;;;;33.20;38.72;99146.76;1870677;76;22306;-61
2021/07/14 10:19:27;;;;;;;10.53;6.12;;;;;;;33.01;39.27;99153.55;1873828;76;27941;-60
2021/07/14 10:22:02;;;;;;;9.83;6.10;;;;;;;32.73;39.64;99150.00;1854841;76;28185;-62
2021/07/14 10:24:38;;;;;;;10.93;6.20;;;;;;;32.62;39.87;99141.00;1890060;76;22054;-62
2021/07/14 10:27:32;;;;;;;9.10;6.60;;;;;;;32.51;39.93;99146.80;1862709;76;22440;-61
2021/07/14 10:30:09;;;;;;;8.30;6.45;;;;;;;32.38;39.99;99144.19;1870576;76;22620;-63
2021/07/14 10:33:05;;;;;;;8.90;6.27;;;;;;;32.34;40.62;99144.07;1854696;76;28403;-62
2021/07/14 10:35:43;;;;;;;11.08;6.42;;;;;;;32.48;40.85;99107.80;1870632;76;22067;-61
2021/07/14 10:38:21;;;;;;;8.30;5.53;;;;;;;32.54;40.26;99118.04;1870619;76;22474;-63
2021/07/14 10:40:56;;;;;;;9.10;6.37;;;;;;;32.69;40.04;99131.16;1870856;76;22140;-61
2021/07/14 10:43:31;;;;;;;7.80;5.65;;;;;;;32.95;39.43;99135.33;1870663;76;22224;-62
2021/07/14 10:46:12;;;;;;;7.90;5.80;;;;;;;33.19;39.06;99128.53;1889963;76;22702;-62
2021/07/14 10:48:48;;;;;;;8.63;5.67;;;;;;;33.37;38.81;99134.71;1870720;76;22232;-63
2021/07/14 10:51:25;;;;;;;7.37;6.00;;;;;;;33.28;38.14;99145.69;1854617;76;27934;-62
2021/07/14 10:54:04;;;;;;;8.48;5.87;;;;;;;33.32;38.25;99150.28;1870533;76;22252;-62
2021/07/14 10:56:46;;;;;;;8.15;6.30;;;;;;;33.53;37.92;99143.68;1870464;76;22469;-64
2021/07/14 10:59:23;;;;;;;9.30;6.22;;;;;;;33.75;37.12;99150.35;1870593;76;22494;-62
2021/07/14 11:02:17;;;;;;;11.05;5.55;;;;;;;33.51;37.08;99137.13;1870540;76;22098;-63
2021/07/14 11:04:53;;;;;;;9.73;5.80;;;;;;;33.11;38.29;99134.98;1870598;76;22224;-62
2021/07/14 11:07:47;;;;;;;9.70;6.30;;;;;;;33.15;38.63;99129.73;1870659;76;22623;-62
2021/07/14 11:10:33;;;;;;;6.30;5.25;;;;;;;33.18;38.15;99136.66;1870615;76;22204;-62
2021/07/14 11:13:29;;;;;;;8.75;5.80;;;;;;;33.16;38.10;99134.63;1870477;76;22526;-62
2021/07/14 11:16:28;;;;;;;9.75;5.53;;;;;;;33.12;38.48;99134.00;1870503;76;22082;-63
2021/07/14 11:19:19;;;;;;;10.48;6.10;;;;;;;33.08;37.90;99133.41;1873826;76;27939;-63
2021/07/14 11:22:03;;;;;;;9.58;6.42;;;;;;;33.01;37.84;99129.48;1889906;76;22211;-62
2021/07/14 11:24:46;;;;;;;12.70;7.15;;;;;;;32.85;38.42;99131.67;1889898;76;22224;-63
2021/07/14 11:27:33;;;;;;;9.53;5.90;;;;;;;32.60;38.58;99126.90;1870651;76;22063;-62
2021/07/14 11:30:13;;;;;;;9.98;6.62;;;;;;;32.28;39.42;99120.48;1870657;76;20212;-63
2021/07/14 11:32:56;;;;;;;9.38;6.62;;;;;;;32.18;39.61;99129.17;1889892;76;22536;-63
2021/07/14 11:35:44;;;;;;;8.30;6.22;;;;;;;32.32;39.57;99131.31;1870447;76;22457;-63
2021/07/14 11:38:54;;;;;;;11.15;6.03;;;;;;;32.53;39.43;99122.15;1870534;76;22256;-62
2021/07/14 11:41:28;;;;;;;9.15;6.10;;;;;;;32.44;39.58;99127.70;1870635;76;22058;-63
2021/07/14 11:44:04;;;;;;;11.03;6.22;;;;;;;32.50;39.68;99107.20;1870514;76;22486;-62
2021/07/14 11:46:38;;;;;;;9.37;6.20;;;;;;;32.73;39.40;99116.10;1854828;76;27943;-60
2021/07/14 11:49:13;;;;;;;8.18;5.40;;;;;;;33.05;38.66;99128.30;1889932;76;22050;-61
2021/07/14 11:51:49;;;;;;;8.30;5.78;;;;;;;33.06;38.98;99120.63;1889959;76;22073;-61
2021/07/14 11:54:43;;;;;;;9.18;5.78;;;;;;;33.25;38.70;99121.83;1870459;76;22098;-62
2021/07/14 11:57:38;;;;;;;8.13;6.00;;;;;;;33.31;38.16;99118.67;1873991;76;27927;-61
2021/07/14 12:00:15;;;;;;;6.67;5.67;;;;;;;33.37;38.13;99124.86;1870469;76;22303;-62
2021/07/14 12:03:02;;;;;;;8.40;6.03;;;;;;;33.44;38.02;99120.71;1889941;76;22457;-62
2021/07/14 12:05:43;;;;;;;9.35;6.28;;;;;;;33.68;37.99;99121.88;1869685;76;22212;-63
2021/07/14 12:08:18;;;;;;;10.45;5.72;;;;;;;33.97;37.59;99116.42;1889908;76;22240;-62
2021/07/14 12:10:57;;;;;;;8.03;5.90;;;;;;;34.00;37.43;99123.73;1889861;76;22073;-63
2021/07/14 12:13:32;;;;;;;12.05;6.67;;;;;;;33.93;37.64;99120.70;1889904;76;22045;-62
2021/07/14 12:16:08;;;;;;;10.90;6.50;;;;;;;33.70;37.77;99115.08;1870406;76;22132;-62
2021/07/14 12:18:53;;;;;;;8.03;6.00;;;;;;;33.63;38.25;99108.53;1870639;76;22619;-61
2021/07/14 12:21:37;;;;;;;8.65;5.42;;;;;;;33.92;37.32;99108.80;1870710;76;22620;-62
2021/07/14 12:24:43;;;;;;;8.05;5.42;;;;;;;34.23;36.64;99115.63;1870561;76;22047;-61
2021/07/14 12:27:38;;;;;;;10.05;5.67;;;;;;;34.48;35.20;99105.00;1869768;76;22191;-63
2021/07/14 12:30:23;;;;;;;7.55;5.42;;;;;;;34.57;35.28;99114.41;1870616;76;22212;-62
2021/07/14 12:32:58;;;;;;;6.62;5.15;;;;;;;34.67;35.97;99106.46;1889883;76;22267;-63
2021/07/14 12:35:35;;;;;;;6.22;4.42;;;;;;;34.78;34.64;99115.78;1889912;76;22230;-64
2021/07/14 12:38:14;;;;;;;6.65;5.17;;;;;;;34.86;34.60;99108.87;1870607;76;22233;-62
2021/07/14 12:40:51;;;;;;;8.60;5.28;;;;;;;35.04;34.15;99118.00;1870573;76;22060;-61
2021/07/14 12:43:26;;;;;;;7.80;5.28;;;;;;;35.29;33.37;99119.86;1889941;76;22236;-60
2021/07/14 12:46:01;;;;;;;13.83;5.55;;;;;;;35.45;33.46;99117.52;1889908;76;22286;-61
2021/07/14 12:48:36;;;;;;;8.83;5.78;;;;;;;35.36;33.96;99110.28;1890003;76;22057;-61
2021/07/14 12:51:13;;;;;;;9.88;5.30;;;;;;;35.42;34.32;99111.09;1870638;76;22252;-63
2021/07/14 12:53:57;;;;;;;8.95;5.20;;;;;;;35.41;34.52;99113.41;1870653;76;22224;-62
2021/07/14 12:56:31;;;;;;;7.55;5.05;;;;;;;35.17;34.57;99113.28;1870643;76;22224;-62
2021/07/14 12:59:06;;;;;;;11.12;5.75;;;;;;;34.99;34.59;99098.78;1890015;76;22054;-62
2021/07/14 13:01:47;;;;;;;8.35;5.58;;;;;;;34.86;35.14;99098.14;1869754;76;22252;-64
2021/07/14 13:04:22;;;;;;;10.30;5.70;;;;;;;34.72;35.67;99100.70;1870610;76;22116;-62
2021/07/14 13:06:57;;;;;;;8.50;5.33;;;;;;;34.70;35.63;99091.94;1870639;76;22224;-61
2021/07/14 13:09:32;;;;;;;8.03;5.15;;;;;;;34.62;35.71;99099.31;1870467;76;20102;-64
2021/07/14 13:12:08;;;;;;;9.00;5.47;;;;;;;34.61;35.20;99098.97;1889901;76;22231;-63
2021/07/14 13:14:44;;;;;;;11.65;5.85;;;;;;;34.57;35.47;99092.13;1870562;76;22047;-63
2021/07/14 13:17:32;;;;;;;10.25;5.20;;;;;;;34.29;36.12;99087.80;1889900;76;22208;-62
2021/07/14 13:20:18;;;;;;;9.78;6.00;;;;;;;34.07;36.88;99094.16;1870434;76;22514;-60
2021/07/14 13:23:00;;;;;;;9.25;5.75;;;;;;;33.98;37.03;99094.05;1889894;76;22108;-62
2021/07/14 13:25:48;;;;;;;8.60;5.80;;;;;;;34.08;36.89;99095.84;1870629;76;22326;-62
2021/07/14 13:28:30;;;;;;;8.45;4.90;;;;;;;34.19;37.05;99088.23;1870607;76;22189;-62
2021/07/14 13:31:11;;;;;;;11.33;5.47;;;;;;;34.29;36.76;99089.14;1889894;76;22733;-61
2021/07/14 13:34:09;;;;;;;8.85;5.65;;;;;;;34.49;36.42;99088.77;1870447;76;22248;-63
2021/07/14 13:36:49;;;;;;;8.15;5.42;;;;;;;34.82;35.88;99069.92;1870666;76;22237;-62
2021/07/14 13:39:44;;;;;;;7.33;5.15;;;;;;;34.56;35.91;99075.70;1870392;76;22070;-62
2021/07/14 13:42:37;;;;;;;10.98;5.12;;;;;;;34.59;35.00;99090.20;1870599;76;22241;-61
2021/07/14 13:45:30;;;;;;;10.23;5.28;;;;;;;34.61;34.56;99077.52;1854620;76;27931;-62
2021/07/14 13:48:22;;;;;;;8.90;5.12;;;;;;;34.62;34.38;99079.20;1870359;76;22055;-63
2021/07/14 13:50:56;;;;;;;11.30;5.65;;;;;;;34.60;34.62;99080.32;1889892;76;22160;-63
2021/07/14 13:53:57;;;;;;;7.83;5.35;;;;;;;34.60;34.52;99081.16;1889916;76;22233;-63
2021/07/14 13:56:32;;;;;;;8.87;5.60;;;;;;;34.54;34.52;99072.30;1854901;76;28091;-61
2021/07/14 13:59:31;;;;;;;11.60;5.67;;;;;;;34.51;34.60;99071.23;1870651;76;22209;-62
2021/07/14 14:02:23;;;;;;;6.55;4.87;;;;;;;34.52;34.63;99072.91;1889890;76;22251;-61
2021/07/14 14:05:08;;;;;;;12.82;5.92;;;;;;;34.61;34.18;99076.18;1889905;76;22568;-62
2021/07/14 14:07:43;;;;;;;10.38;5.50;;;;;;;34.66;34.36;99063.72;1889929;76;22227;-62
2021/07/14 14:10:22;;;;;;;6.45;5.05;;;;;;;34.59;34.66;99062.06;1870698;76;22265;-62
2021/07/14 14:13:32;;;;;;;11.38;5.65;;;;;;;34.55;34.96;99057.91;1879952;75;22195;-61
2021/07/14 14:16:08;;;;;;;9.00;5.65;;;;;;;34.45;35.27;99071.28;1870770;76;22047;-61
2021/07/14 14:19:03;;;;;;;6.47;5.42;;;;;;;34.57;35.48;99072.02;1889826;76;22473;-62
2021/07/14 14:21:40;;;;;;;9.43;5.55;;;;;;;34.82;35.04;99066.74;1870460;76;22091;-62
2021/07/14 14:24:15;;;;;;;8.15;5.17;;;;;;;34.90;35.00;99062.05;1870518;76;22054;-62
2021/07/14 14:26:54;;;;;;;7.80;5.35;;;;;;;34.85;34.73;99058.92;1889881;76;22293;-63
2021/07/14 14:29:27;;;;;;;10.98;5.30;;;;;;;34.39;35.47;99046.83;1870594;76;22087;-62
2021/07/14 14:32:23;;;;;;;9.25;5.47;;;;;;;34.02;36.23;99057.51;1870441;76;22473;-62
2021/07/14 14:35:20;;;;;;;7.65;5.78;;;;;;;33.93;36.63;99050.24;1870598;76;22244;-61
2021/07/14 14:37:56;;;;;;;13.50;6.78;;;;;;;33.93;36.85;99055.10;1870559;76;22095;-62
2021/07/14 14:40:40;;;;;;;7.65;5.50;;;;;;;33.96;37.10;99058.50;1869715;76;22098;-62
2021/07/14 14:43:54;;;;;;;7.20;5.83;;;;;;;33.90;37.27;99051.35;1883799;75;22207;-61
2021/07/14 14:46:42;;;;;;;16.20;5.87;;;;;;;33.83;37.35;99052.00;1870419;76;22082;-61
2021/07/14 14:49:18;;;;;;;8.50;6.00;;;;;;;33.78;37.33;99054.21;1870609;76;22079;-62
2021/07/14 14:52:12;;;;;;;9.85;6.42;;;;;;;33.77;37.71;99049.84;1889998;76;22073;-61
2021/07/14 14:54:47;;;;;;;12.15;5.90;;;;;;;33.73;37.94;99055.92;1870826;76;22200;-62
2021/07/14 14:57:21;;;;;;;7.83;6.08;;;;;;;33.73;37.98;99051.91;1889918;76;22623;-62
2021/07/14 14:59:56;;;;;;;8.05;5.80;;;;;;;33.72;37.90;99047.05;1870623;76;22302;-62
2021/07/14 15:02:31;;;;;;;9.78;5.90;;;;;;;33.64;37.98;99048.69;1889867;76;22082;-62
2021/07/14 15:05:08;;;;;;;7.73;6.00;;;;;;;33.53;38.42;99040.66;1873974;76;27934;-63
2021/07/14 15:08:03;;;;;;;8.25;6.10;;;;;;;33.50;38.67;99037.25;1870631;76;22216;-61
2021/07/14 15:10:39;;;;;;;8.98;5.65;;;;;;;33.49;38.74;99038.23;1889898;76;22243;-61
2021/07/14 15:13:14;;;;;;;7.90;6.05;;;;;;;33.46;38.78;99046.52;1870687;76;20102;-63
2021/07/14 15:15:50;;;;;;;10.00;5.60;;;;;;;33.44;38.65;99039.10;1870614;76;22244;-62
2021/07/14 15:21:03;;;;;;;11.73;6.03;;;;;;;33.39;38.74;99035.95;1870442;76;22628;-62
2021/07/14 15:23:57;;;;;;;10.23;6.33;;;;;;;33.36;38.80;99031.36;1870558;76;22208;-61
2021/07/14 15:29:33;;;;;;;8.60;5.67;;;;;;;33.30;39.07;99032.69;1889904;76;22054;-62
2021/07/14 15:32:08;;;;;;;8.85;5.80;;;;;;;33.29;39.06;99022.48;1889915;76;22089;-62
2021/07/14 15:34:43;;;;;;;9.65;6.25;;;;;;;33.27;39.18;99040.48;1854875;76;27920;-62
2021/07/14 15:37:19;;;;;;;11.00;5.95;;;;;;;33.31;39.42;99030.40;1870483;76;22054;-63
2021/07/14 15:39:54;;;;;;;8.23;6.17;;;;;;;33.29;39.23;99039.88;1870578;76;22325;-61
2021/07/14 15:42:30;;;;;;;10.25;6.25;;;;;;;33.21;39.38;99034.31;1870358;76;22081;-63
2021/07/14 15:45:06;;;;;;;14.38;6.60;;;;;;;33.16;39.60;99035.66;1870712;76;22441;-62
2021/07/14 15:48:02;;;;;;;10.93;6.30;;;;;;;33.14;39.88;99029.59;1859876;75;38263;-63
2021/07/14 15:50:37;;;;;;;8.13;6.12;;;;;;;33.12;39.75;99032.87;1854667;76;28324;-62
2021/07/14 15:53:12;;;;;;;9.90;5.70;;;;;;;33.12;40.01;99028.36;1889934;76;22514;-62
2021/07/14 15:55:48;;;;;;;8.65;5.83;;;;;;;33.15;40.42;99025.92;1870615;76;22489;-63
2021/07/14 15:58:29;;;;;;;8.85;5.85;;;;;;;33.14;40.28;99026.91;1869743;76;22318;-62
2021/07/14 16:01:24;;;;;;;8.63;6.33;;;;;;;33.13;40.23;99029.20;1870551;76;22055;-64
2021/07/14 16:04:18;;;;;;;11.43;7.28;;;;;;;33.10;40.49;99034.81;1889908;76;22195;-64
2021/07/14 16:06:55;;;;;;;11.25;6.20;;;;;;;33.05;40.74;99033.37;1889868;76;22077;-63
2021/07/14 16:09:49;;;;;;;8.70;5.78;;;;;;;33.01;40.69;99025.69;1870579;76;22212;-61
2021/07/14 16:12:30;;;;;;;8.55;6.15;;;;;;;33.01;40.74;99026.53;1889970;76;22072;-62
2021/07/14 16:15:26;;;;;;;6.85;6.15;;;;;;;33.11;40.53;99025.83;1870549;76;22216;-62
2021/07/14 16:18:20;;;;;;;8.95;5.85;;;;;;;33.10;40.50;99022.77;1870627;76;22074;-62
2021/07/14 16:21:14;;;;;;;9.55;6.37;;;;;;;33.02;40.41;99025.58;1870581;76;22236;-63
2021/07/14 16:23:48;;;;;;;13.62;6.17;;;;;;;32.97;40.58;99021.55;1889881;76;22255;-62
2021/07/14 16:26:26;;;;;;;11.03;6.25;;;;;;;32.92;40.59;99027.27;1854595;76;27912;-62
2021/07/14 16:29:21;;;;;;;7.87;5.83;;;;;;;32.89;40.54;99022.17;1889975;76;22212;-61
2021/07/14 16:31:56;;;;;;;10.83;6.20;;;;;;;32.85;40.67;99019.41;1854885;76;27907;-62
2021/07/14 16:34:31;;;;;;;7.87;5.78;;;;;;;32.82;40.79;99023.17;1870698;76;22244;-63
2021/07/14 16:37:07;;;;;;;15.05;6.45;;;;;;;32.79;40.91;99021.21;1889938;76;22117;-63
2021/07/14 16:39:42;;;;;;;8.45;5.90;;;;;;;32.74;40.91;99028.75;1870600;76;22236;-63
2021/07/14 16:42:17;;;;;;;7.58;5.97;;;;;;;32.71;41.01;99023.66;1870532;76;22196;-62
2021/07/14 16:44:52;;;;;;;7.47;5.35;;;;;;;32.67;41.04;99018.17;1889873;76;22074;-62
2021/07/14 16:47:27;;;;;;;9.45;5.70;;;;;;;32.61;41.14;99022.20;1870551;76;22485;-61
2021/07/14 16:50:05;;;;;;;11.10;5.92;;;;;;;32.58;41.25;99018.44;1870576;76;22074;-64
2021/07/14 16:52:40;;;;;;;7.25;5.87;;;;;;;32.54;41.54;99016.97;1870604;76;22302;-62
2021/07/14 16:55:16;;;;;;;12.35;6.47;;;;;;;32.44;41.86;99016.34;1854742;76;28318;-61
2021/07/14 16:57:51;;;;;;;9.43;6.05;;;;;;;32.38;42.22;99013.29;1870553;76;22204;-62
2021/07/14 17:00:47;;;;;;;9.75;6.00;;;;;;;32.31;42.61;99014.73;1870566;76;22074;-62
2021/07/14 17:03:22;;;;;;;8.43;6.00;;;;;;;32.22;42.85;99003.80;1889924;76;22082;-61
2021/07/14 17:06:17;;;;;;;9.48;6.30;;;;;;;32.16;43.33;99012.77;1889849;76;22184;-63
2021/07/14 17:08:51;;;;;;;9.08;6.80;;;;;;;32.07;43.42;99009.00;1870628;76;22279;-61
2021/07/14 17:11:26;;;;;;;12.65;6.60;;;;;;;31.98;43.74;99007.91;1870558;76;22104;-62
2021/07/14 17:14:04;;;;;;;10.20;6.70;;;;;;;31.89;44.09;99002.39;1854573;76;28383;-63
2021/07/14 17:16:46;;;;;;;10.00;6.65;;;;;;;31.84;44.40;99001.89;1889954;76;22137;-61
2021/07/14 17:19:22;;;;;;;11.22;7.03;;;;;;;31.75;44.55;99003.42;1819478;77;28200;-62
2021/07/14 17:21:57;;;;;;;13.83;7.10;;;;;;;31.70;44.79;98999.80;1854917;76;27930;-62
2021/07/14 17:24:34;;;;;;;11.08;7.20;;;;;;;31.68;45.02;99003.05;1870430;76;22504;-65
2021/07/14 17:27:08;;;;;;;12.30;7.20;;;;;;;31.61;45.09;99002.30;1854824;76;28314;-63
2021/07/14 17:30:10;;;;;;;8.65;6.97;;;;;;;31.51;46.03;98997.64;1889869;76;22049;-62
2021/07/14 17:32:46;;;;;;;12.05;6.85;;;;;;;31.34;46.50;98995.34;1889868;76;22077;-61
2021/07/14 17:35:40;;;;;;;13.28;7.45;;;;;;;31.11;47.29;99001.05;1889889;76;22050;-62
2021/07/14 17:38:15;;;;;;;12.65;7.30;;;;;;;30.91;47.71;98994.50;1870599;76;22255;-63
2021/07/14 17:40:50;;;;;;;10.38;6.97;;;;;;;30.78;48.25;98995.83;1889840;76;22046;-62
2021/07/14 17:43:25;;;;;;;9.68;6.72;;;;;;;30.63;48.74;99004.92;1870540;76;22192;-63
2021/07/14 17:46:07;;;;;;;12.58;7.12;;;;;;;30.49;49.25;98998.77;1889909;76;22195;-62
2021/07/14 17:48:42;;;;;;;13.93;7.35;;;;;;;30.39;49.52;99002.20;1870532;76;22152;-63
2021/07/14 17:51:18;;;;;;;10.58;7.22;;;;;;;30.28;49.91;99004.28;1870345;76;22502;-62
2021/07/14 17:53:54;;;;;;;17.45;8.03;;;;;;;30.19;50.06;99004.39;1870361;76;22559;-62
2021/07/14 17:56:30;;;;;;;8.90;6.97;;;;;;;30.08;50.54;98998.49;1870605;76;22286;-62
2021/07/14 17:59:05;;;;;;;14.00;8.25;;;;;;;30.00;50.77;99002.16;1870566;76;22127;-61
2021/07/14 18:01:40;;;;;;;10.98;7.42;;;;;;;29.93;51.01;99010.19;1870590;76;22149;-63
2021/07/14 18:04:15;;;;;;;13.43;7.72;;;;;;;29.85;51.63;99005.39;1870543;76;22267;-63
2021/07/14 18:06:50;;;;;;;13.15;7.62;;;;;;;29.78;52.10;98999.26;1870558;76;22144;-62
2021/07/14 18:09:25;;;;;;;14.58;8.40;;;;;;;29.69;52.05;98991.89;1889866;76;22127;-61
2021/07/14 18:12:00;;;;;;;13.03;8.18;;;;;;;29.62;52.42;98996.27;1873978;76;27883;-61
2021/07/14 18:14:35;;;;;;;11.73;7.08;;;;;;;29.59;52.67;98996.94;1870595;76;22694;-62
2021/07/14 18:17:39;;;;;;;12.47;7.28;;;;;;;29.53;52.77;98997.36;1890048;76;22191;-62
2021/07/14 18:20:20;;;;;;;13.83;8.15;;;;;;;29.47;53.07;99009.26;1870527;76;22128;-62
2021/07/14 18:22:55;;;;;;;16.80;8.28;;;;;;;29.40;53.29;99011.94;1870456;76;22153;-63
2021/07/14 18:25:30;;;;;;;12.50;9.30;;;;;;;29.35;53.62;99010.91;1889892;76;22267;-62
2021/07/14 18:28:09;;;;;;;14.63;9.05;;;;;;;29.28;54.14;99008.75;1870597;76;22140;-62
2021/07/14 18:30:43;;;;;;;14.05;9.33;;;;;;;29.23;53.99;99008.20;1889882;76;22104;-61
2021/07/14 18:33:41;;;;;;;24.25;10.40;;;;;;;29.16;54.67;99015.26;1870563;76;22610;-61
2021/07/14 18:36:34;;;;;;;14.53;9.05;;;;;;;29.11;55.13;99009.39;1870533;76;22243;-63
2021/07/14 18:39:27;;;;;;;18.30;9.20;;;;;;;29.05;55.38;99008.88;1870617;76;22145;-63
2021/07/14 18:42:22;;;;;;;16.77;10.38;;;;;;;28.98;55.56;99016.41;1870396;76;22140;-62
2021/07/14 18:44:57;;;;;;;18.80;10.08;;;;;;;28.90;55.69;99012.05;1870713;76;22101;-61
2021/07/14 18:47:31;;;;;;;18.00;11.05;;;;;;;28.84;55.89;99017.28;1870599;76;22117;-63
2021/07/14 18:50:08;;;;;;;17.00;10.85;;;;;;;28.79;56.14;99014.91;1870566;76;22101;-63
2021/07/14 18:52:44;;;;;;;14.18;10.50;;;;;;;28.72;55.77;99009.59;1890107;76;22132;-62
2021/07/14 18:55:20;;;;;;;12.68;9.08;;;;;;;28.67;55.67;99015.67;1870389;76;22579;-63
2021/07/14 18:57:55;;;;;;;13.65;9.93;;;;;;;28.63;55.83;99019.48;1889894;76;22561;-62
2021/07/14 19:00:31;;;;;;;15.83;9.03;;;;;;;28.58;55.79;99018.92;1850752;77;22156;-61
2021/07/14 19:03:26;;;;;;;14.10;9.10;;;;;;;28.52;55.58;99020.61;1854802;76;27945;-61
2021/07/14 19:06:02;;;;;;;16.87;9.50;;;;;;;28.51;55.63;99021.09;1873947;76;27910;-63
2021/07/14 19:08:37;;;;;;;17.52;9.55;;;;;;;28.51;55.30;99019.77;1870650;76;20097;-62
2021/07/14 19:11:37;;;;;;;21.07;9.43;;;;;;;28.46;55.00;99019.67;1869666;76;22161;-61
2021/07/14 19:14:13;;;;;;;14.58;8.48;;;;;;;28.40;55.13;99019.55;1889921;76;22180;-63
2021/07/14 19:17:07;;;;;;;12.73;9.00;;;;;;;28.37;55.16;99022.41;1870508;76;22168;-64
2021/07/14 19:19:43;;;;;;;13.80;8.85;;;;;;;28.34;55.05;99022.12;1870395;76;22152;-62
2021/07/14 19:22:19;;;;;;;16.12;9.20;;;;;;;28.31;55.15;99016.97;1854562;76;27952;-62
2021/07/14 19:24:54;;;;;;;16.87;9.60;;;;;;;28.34;55.40;99015.93;1870513;76;22551;-62
2021/07/14 19:27:29;;;;;;;16.97;9.43;;;;;;;28.31;55.36;99014.31;1889906;76;22574;-63
2021/07/14 19:30:08;;;;;;;14.13;9.40;;;;;;;28.28;55.26;99017.17;1870626;76;22153;-62
2021/07/14 19:32:44;;;;;;;18.45;9.80;;;;;;;28.27;55.25;99014.14;1870682;76;22555;-63
2021/07/14 19:35:22;;;;;;;13.25;8.75;;;;;;;28.24;55.29;99016.99;1870719;76;22135;-63
2021/07/14 19:37:58;;;;;;;16.75;9.10;;;;;;;28.21;55.26;99016.30;1870605;76;22128;-63
2021/07/14 19:40:52;;;;;;;16.55;9.15;;;;;;;28.18;55.51;99020.00;1870548;76;22101;-62
2021/07/14 19:43:27;;;;;;;13.75;9.13;;;;;;;28.14;55.58;99009.20;1870685;76;22551;-63
2021/07/14 19:46:21;;;;;;;16.05;8.98;;;;;;;28.09;55.69;99015.27;1889892;76;22160;-63
2021/07/14 19:49:15;;;;;;;11.73;7.65;;;;;;;28.07;55.62;99017.16;1870473;76;22181;-61
2021/07/14 19:51:50;;;;;;;13.45;8.33;;;;;;;28.02;55.55;99016.58;1889913;76;22108;-63
2021/07/14 19:54:26;;;;;;;11.68;8.98;;;;;;;28.00;55.68;99015.81;1870583;76;22554;-63
2021/07/14 19:57:20;;;;;;;15.20;8.53;;;;;;;27.95;55.70;99012.09;1870779;76;22528;-63
2021/07/14 20:00:15;;;;;;;13.65;9.25;;;;;;;27.90;55.84;99017.67;1870593;76;22141;-61
2021/07/14 20:02:50;;;;;;;15.83;8.18;;;;;;;27.88;55.90;99014.25;1889960;76;22554;-62
2021/07/14 20:05:25;;;;;;;14.25;9.75;;;;;;;27.83;55.90;99017.65;1889934;76;22190;-62
2021/07/14 20:08:02;;;;;;;15.05;9.20;;;;;;;27.79;56.02;99020.09;1870380;76;22193;-63
2021/07/14 20:10:37;;;;;;;15.07;9.60;;;;;;;27.75;55.93;99011.06;1854776;76;27933;-63
2021/07/14 20:13:13;;;;;;;16.20;8.90;;;;;;;27.77;56.01;99022.45;1870417;76;20188;-63
2021/07/14 20:15:55;;;;;;;12.25;8.33;;;;;;;27.73;55.85;99023.08;1889819;76;22217;-62
2021/07/14 20:18:50;;;;;;;18.00;9.63;;;;;;;27.68;55.86;99017.19;1868451;75;22211;-61
2021/07/14 20:21:26;;;;;;;13.22;8.75;;;;;;;27.66;56.05;99017.78;1870397;76;22157;-62
2021/07/14 20:24:01;;;;;;;16.10;9.43;;;;;;;27.63;56.11;99015.28;1890008;76;22136;-62
2021/07/14 20:26:56;;;;;;;13.78;9.10;;;;;;;27.59;56.25;99017.75;1854675;76;27937;-62
2021/07/14 20:29:33;;;;;;;17.15;9.08;;;;;;;27.58;56.39;99019.55;1854575;76;27947;-62
2021/07/14 20:32:09;;;;;;;10.88;8.68;;;;;;;27.60;56.33;99018.12;1870737;76;20200;-62
2021/07/14 20:34:45;;;;;;;20.68;9.30;;;;;;;27.56;56.31;99025.88;1890124;76;22230;-62
2021/07/14 20:37:41;;;;;;;12.35;8.88;;;;;;;27.51;56.39;99027.47;1870435;76;22181;-60
2021/07/14 20:40:16;;;;;;;17.42;8.98;;;;;;;27.48;56.39;99027.17;1870563;76;22184;-62
2021/07/14 20:42:51;;;;;;;11.18;9.00;;;;;;;27.43;56.51;99015.98;1870645;76;22144;-62
2021/07/14 20:45:26;;;;;;;11.90;9.40;;;;;;;27.40;56.58;99017.48;1870653;76;22539;-61
2021/07/14 20:48:03;;;;;;;16.42;9.70;;;;;;;27.38;56.69;99014.55;1854671;76;27881;-61
2021/07/14 20:50:38;;;;;;;13.62;9.35;;;;;;;27.38;56.86;99011.89;1870623;76;22555;-62
2021/07/14 20:53:21;;;;;;;16.62;9.53;;;;;;;27.34;57.03;99016.50;1889874;76;22192;-61
2021/07/14 20:55:56;;;;;;;15.88;9.70;;;;;;;27.30;57.20;99015.43;1870580;76;22160;-62
2021/07/14 20:58:33;;;;;;;14.13;9.50;;;;;;;27.26;57.40;99013.44;1870622;76;22145;-62
2021/07/14 21:01:08;;;;;;;16.97;8.85;;;;;;;27.22;57.54;99012.77;1870651;76;22107;-62
2021/07/14 21:03:43;;;;;;;13.25;9.30;;;;;;;27.18;57.72;99007.73;1870738;76;22124;-60
2021/07/14 21:06:17;;;;;;;14.23;9.33;;;;;;;27.15;57.86;99007.88;1870611;76;22120;-63
2021/07/14 21:08:53;;;;;;;16.48;9.70;;;;;;;27.11;57.90;99008.97;1873845;76;28424;-63
2021/07/14 21:11:28;;;;;;;13.90;9.15;;;;;;;27.12;57.99;99015.97;1870604;76;22563;-61
2021/07/14 21:14:06;;;;;;;12.53;8.60;;;;;;;27.10;58.07;99007.28;1870384;76;22547;-61
2021/07/14 21:16:41;;;;;;;15.45;9.70;;;;;;;27.06;58.14;99011.40;1870565;76;22169;-62
2021/07/14 21:19:16;;;;;;;11.78;9.20;;;;;;;27.03;58.20;99007.60;1870627;76;22143;-62
2021/07/14 21:21:51;;;;;;;14.53;8.90;;;;;;;27.00;58.35;99006.93;1870536;76;22251;-61
2021/07/14 21:24:27;;;;;;;15.05;9.65;;;;;;;26.96;58.48;99006.23;1870489;76;22178;-61
2021/07/14 21:27:02;;;;;;;14.00;9.23;;;;;;;26.92;58.66;99002.06;1870617;76;22540;-63
2021/07/14 21:29:45;;;;;;;10.60;8.53;;;;;;;26.90;58.89;99005.26;1889913;76;22128;-61
2021/07/14 21:32:20;;;;;;;14.68;9.65;;;;;;;26.87;58.95;99001.91;1889964;76;22104;-60
2021/07/14 21:34:55;;;;;;;16.27;9.68;;;;;;;26.83;59.03;99002.56;1890035;76;22192;-61
2021/07/14 21:37:30;;;;;;;15.90;9.20;;;;;;;26.81;59.27;99000.45;1870559;76;22164;-62
2021/07/14 21:40:11;;;;;;;16.95;9.85;;;;;;;26.79;59.55;99001.00;1854585;76;27894;-61
2021/07/14 21:42:48;;;;;;;13.60;9.03;;;;;;;26.80;59.76;99000.09;1889893;76;22176;-61
2021/07/14 21:45:24;;;;;;;15.63;9.90;;;;;;;26.77;59.92;99003.76;1870653;76;20093;-60
2021/07/14 21:47:59;;;;;;;11.12;8.60;;;;;;;26.76;60.09;99004.67;1870657;76;22116;-61
2021/07/14 21:50:37;;;;;;;11.00;8.65;;;;;;;26.73;60.20;98996.06;1870562;76;22546;-62
2021/07/14 21:53:31;;;;;;;16.37;9.43;;;;;;;26.70;60.28;98989.62;1870555;76;22546;-61
2021/07/14 21:56:07;;;;;;;18.55;9.55;;;;;;;26.68;60.29;98993.66;1870564;76;22189;-62
2021/07/14 21:58:42;;;;;;;13.53;9.33;;;;;;;26.66;60.34;98994.68;1889908;76;22116;-61
2021/07/14 22:01:17;;;;;;;13.83;9.45;;;;;;;26.62;60.29;98994.00;1889916;76;22159;-61
2021/07/14 22:03:52;;;;;;;13.00;9.63;;;;;;;26.59;60.35;98995.03;1854666;76;28295;-62
2021/07/14 22:06:28;;;;;;;15.83;11.22;;;;;;;26.62;60.33;98992.20;1854584;76;28318;-61
2021/07/14 22:09:04;;;;;;;15.98;11.88;;;;;;;26.65;60.29;98987.69;1870626;76;22137;-60
2021/07/14 22:11:59;;;;;;;21.12;10.13;;;;;;;26.62;60.27;98978.97;1870575;76;22653;-61
2021/07/14 22:14:53;;;;;;;14.25;10.60;;;;;;;26.64;60.06;98981.55;1854612;76;27895;-60
2021/07/14 22:17:28;;;;;;;12.60;9.93;;;;;;;26.75;59.92;98976.98;1870634;76;22236;-61
2021/07/14 22:20:08;;;;;;;15.40;11.00;;;;;;;26.75;59.98;98976.50;1889936;76;22116;-61
2021/07/14 22:22:51;;;;;;;12.80;9.05;;;;;;;26.73;60.03;98977.53;1870637;76;22120;-62
2021/07/14 22:25:31;;;;;;;14.93;10.28;;;;;;;26.70;59.88;98978.55;1870557;76;22157;-60
2021/07/14 22:28:17;;;;;;;12.93;9.65;;;;;;;26.69;60.04;98977.30;1890144;76;20113;-60
2021/07/14 22:30:57;;;;;;;13.32;10.32;;;;;;;26.65;60.09;98978.42;1889965;76;22100;-61